Accueil
METAR-TAF:

METAR-TAF

Aéroports :

Indore, Inde

latitude: 22-43N, longitude: 075-48E, altitude: 561 m

Observation

Le bulletin a été fait il y a 52 minutes, à 23:00 UTC
Vent calme
Température 16°C
Humidité 63%
Pression 1015 hPa
Visibilité: 3500 m
brume sèche

METAR: VAID 262300Z 00000KT 3500 HZ NSC 16/09 Q1015 NOSIG

Heure: 05:22 (23:52 UTC)

Prévision

Le bulletin a été fait il y a 9 heures et 52 minutes, à 14:00 UTC
Prévision valable du 26 à 15 UTC au 26 à 24 UTC
Vent 5 kt de nord-est
Visibilité: 6000 m
Evoluant progressivement
du 26 à 22 UTC au 26 à 24 UTC
Vent 5 kt de nord-est
Visibilité: 5000 m
brume sèche

TAF: VAID 261400Z 2615/2624 05005KT 6000 NSC BECMG 2622/2624 05005KT 5000 HZ NSC

Observations et prévisions météorologiques de plus de 4000 aéroports (messages METAR et TAF).

Les stations disponibles sont représentées par des disques jaunes et rouges sur la carte.

Passer la souris dessus pour voir le nom de la station.

Cliquer dessus pour voir les observations et prévisions météorologiques.

Pour changer de carte: cliquez sur les boutons verts avec une croix noire pour zoomer, sur le bouton vert avec un tiret pour effectuer un zoom arrière, ou sur les flèches vertes pour les cartes adjacentes.


METAR-TAF: